CYIO

Pond Inlet Airport

Pond Inlet, Canada
METAR CYIO 201424Z AUTO 24010KT 1/4SM FG VV005 03/03 A2977 RMK SLP088
Observed Flight Rules
Jul-20 @ 14:24 UTC (18 minutes ago) Instrument Flight Rules
Wind Visibility Clouds Conditions
240° at 10 knots 1/4 miles
  • Vertical visibility at 500' AGL
  • Fog
Temperatures Readings
Current 3°C / 37°F
Dewpoint 3°C / 37°F
Humidity 100%
Altimeter 29.77" Hg
Pressure 1008.8 hPa
Elevation 57
METAR CYIO 201424Z AUTO 24010KT 1/4SM FG VV005 03/03 A2977 RMK SLP088
Observed Flight Rules
Jul-20 @ 14:24 UTC
(18 minutes ago)
LIFR
Wind Visibility
240° at 10 knots 1/4 miles
Clouds
  • Vertical visibility at 500' AGL
Conditions
  • Fog
Temperature Dewpoint
3°C / 37°F 3°C / 37°F
Humidity Altimeter Pressure
100% 29.77" Hg 1008.8 hPa